createdAt,value
2022-08-02T00:04:00.945Z,19.69
2022-08-02T00:14:02.947Z,19.69
2022-08-02T00:24:28.987Z,19.58
2022-08-02T00:34:34.001Z,19.27
2022-08-02T00:44:39.155Z,19.40
2022-08-02T00:54:40.753Z,19.37
2022-08-02T01:04:44.833Z,19.10
2022-08-02T01:14:49.769Z,18.86
2022-08-02T01:24:59.460Z,18.99
2022-08-02T01:35:50.885Z,18.73
2022-08-02T01:45:54.514Z,18.61
2022-08-02T01:55:59.533Z,18.31
2022-08-02T02:06:05.703Z,18.26
2022-08-02T02:16:07.689Z,18.11
2022-08-02T02:26:13.024Z,18.13
2022-08-02T02:36:17.962Z,18.12
2022-08-02T02:46:21.712Z,18.09
2022-08-02T02:56:24.432Z,18.09
2022-08-02T03:06:28.167Z,18.00
2022-08-02T03:16:32.188Z,17.88
2022-08-02T03:26:34.330Z,17.76
2022-08-02T03:36:41.683Z,17.79
2022-08-02T03:46:44.165Z,17.61
2022-08-02T03:56:45.984Z,17.87
2022-08-02T04:06:47.697Z,17.98
2022-08-02T04:17:11.326Z,17.88
2022-08-02T04:27:48.980Z,17.87
2022-08-02T04:37:37.935Z,18.17
2022-08-02T04:48:03.385Z,18.44
2022-08-02T04:58:06.733Z,18.79
2022-08-02T05:08:15.339Z,18.91
2022-08-02T05:18:18.117Z,19.23
2022-08-02T05:28:20.887Z,19.63
2022-08-02T05:38:23.480Z,20.06
2022-08-02T05:48:31.896Z,20.58
2022-08-02T05:58:49.847Z,20.92
2022-08-02T06:09:26.772Z,21.34
2022-08-02T06:19:29.075Z,21.80
2022-08-02T06:29:36.985Z,22.25
2022-08-02T06:39:50.216Z,22.73
2022-08-02T06:49:54.428Z,23.07
2022-08-02T06:59:56.844Z,23.51
2022-08-02T07:10:00.830Z,24.23
2022-08-02T07:20:04.305Z,24.62
2022-08-02T07:30:07.898Z,24.80
2022-08-02T07:40:21.062Z,25.11
2022-08-02T07:50:23.708Z,25.47
2022-08-02T08:00:37.266Z,26.21
2022-08-02T08:11:00.980Z,26.92
2022-08-02T08:21:11.513Z,26.89
2022-08-02T08:31:13.379Z,27.58
2022-08-02T08:41:18.224Z,27.31
2022-08-02T08:51:21.916Z,28.50
2022-08-02T09:01:23.754Z,28.25
2022-08-02T09:11:26.844Z,28.80
2022-08-02T09:21:38.902Z,29.37
2022-08-02T09:31:49.454Z,30.36
2022-08-02T09:41:51.710Z,31.13
2022-08-02T09:52:01.862Z,32.34
2022-08-02T10:02:17.162Z,32.22
2022-08-02T10:12:22.447Z,33.24
2022-08-02T10:22:25.313Z,34.79
2022-08-02T10:32:33.082Z,34.46
2022-08-02T10:42:47.516Z,36.18
2022-08-02T10:53:25.200Z,36.24
2022-08-02T11:03:30.059Z,37.97
2022-08-02T11:14:02.772Z,38.81
2022-08-02T11:24:30.138Z,40.73
2022-08-02T11:34:37.859Z,41.48
2022-08-02T11:44:42.438Z,42.66
2022-08-02T11:54:44.721Z,42.74
2022-08-02T12:04:58.879Z,45.70
2022-08-02T12:15:00.626Z,48.19
2022-08-02T12:25:33.601Z,48.90
2022-08-02T12:35:37.084Z,38.85
2022-08-02T12:45:53.976Z,45.73
2022-08-02T12:56:01.071Z,44.93
2022-08-02T13:06:22.954Z,44.43
2022-08-02T13:16:30.803Z,43.38
2022-08-02T13:26:32.952Z,48.36
2022-08-02T13:36:36.102Z,38.95
2022-08-02T13:46:45.661Z,48.73
2022-08-02T13:56:47.869Z,51.12
2022-08-02T14:06:49.404Z,40.98
2022-08-02T14:16:53.067Z,44.42
2022-08-02T14:26:55.069Z,46.51
2022-08-02T14:36:58.894Z,48.77
2022-08-02T14:47:00.562Z,48.83
2022-08-02T14:57:03.791Z,49.91
2022-08-02T15:07:05.469Z,47.98
2022-08-02T15:17:07.994Z,46.88
2022-08-02T15:27:13.675Z,47.25
2022-08-02T15:37:19.252Z,47.28
2022-08-02T15:47:22.404Z,47.22
2022-08-02T15:57:27.844Z,45.33
2022-08-02T16:07:29.536Z,44.57
2022-08-02T16:17:53.818Z,45.72
2022-08-02T16:28:06.816Z,44.20
2022-08-02T16:38:09.658Z,43.02
2022-08-02T16:48:11.290Z,41.42
2022-08-02T16:58:14.350Z,41.08
2022-08-02T17:08:18.014Z,39.61
2022-08-02T17:18:20.129Z,37.73
2022-08-02T17:28:31.458Z,33.39
2022-08-02T17:38:35.202Z,33.75
2022-08-02T17:49:12.595Z,30.28
2022-08-02T17:59:22.373Z,29.04
2022-08-02T18:09:34.625Z,28.24
2022-08-02T18:19:53.880Z,27.64
2022-08-02T18:30:00.450Z,27.21
2022-08-02T18:40:09.228Z,26.92
2022-08-02T18:50:11.761Z,26.47
2022-08-02T19:00:14.429Z,26.20
2022-08-02T19:10:16.405Z,25.92
2022-08-02T19:30:43.177Z,25.24
2022-08-02T19:40:50.045Z,25.01
2022-08-02T19:50:56.202Z,24.72
2022-08-02T20:01:01.188Z,24.37
2022-08-02T20:11:03.452Z,24.14
2022-08-02T20:21:06.465Z,23.82
2022-08-02T20:31:30.034Z,23.78
2022-08-02T20:41:37.194Z,23.48
2022-08-02T20:51:49.128Z,23.29
2022-08-02T21:01:57.203Z,23.01
2022-08-02T21:11:59.497Z,22.78
2022-08-02T21:22:01.522Z,22.80
2022-08-02T21:32:04.845Z,22.75
2022-08-02T21:42:06.950Z,22.80
2022-08-02T21:52:11.423Z,22.52
2022-08-02T22:02:14.958Z,22.25
2022-08-02T22:12:19.193Z,22.20
2022-08-02T22:22:28.322Z,22.13
2022-08-02T22:32:54.094Z,21.92
2022-08-02T22:42:55.740Z,21.80
2022-08-02T22:52:59.609Z,21.71
2022-08-02T22:59:10.150Z,25.47
2022-08-02T23:03:06.661Z,21.44
2022-08-02T23:13:08.643Z,21.26
2022-08-02T23:23:11.754Z,21.27
2022-08-02T23:33:16.844Z,20.99
2022-08-02T23:43:18.870Z,20.93
2022-08-02T23:53:20.614Z,20.76
